Terminal Aerodrome Forecast
Issued by NWS

Home | Current Version | Previous Version | Text Only | Print | Product List | Glossary On
Versions: 1 2 3 4 5 6 7 8 9 10 11 12 13 14 15
000
FTUS43 KLSX 060520
TAFUIN
TAF
KUIN 060520Z 0606/0706 15006KT 5SM HZ SCT250
     FM061300 19009KT P6SM SCT040 SCT250
     FM061800 19012G20KT P6SM SCT040 SCT250=

USA.gov is the U.S. government's official web portal to all federal, state and local government web resources and services.